sensor_id;sensor_type;location;lat;lon;timestamp;temperature;humidity
19348;DHT22;9810;52.480;9.806;2023-07-20T00:00:13;15.50;99.90
19348;DHT22;9810;52.480;9.806;2023-07-20T00:02:41;15.40;99.90
19348;DHT22;9810;52.480;9.806;2023-07-20T00:05:07;15.30;99.90
19348;DHT22;9810;52.480;9.806;2023-07-20T00:07:35;15.30;99.90
19348;DHT22;9810;52.480;9.806;2023-07-20T00:10:02;15.30;99.90
19348;DHT22;9810;52.480;9.806;2023-07-20T00:12:31;15.30;99.90
19348;DHT22;9810;52.480;9.806;2023-07-20T00:14:58;15.20;99.90
19348;DHT22;9810;52.480;9.806;2023-07-20T00:17:26;15.10;99.90
19348;DHT22;9810;52.480;9.806;2023-07-20T00:19:53;15.00;99.90
19348;DHT22;9810;52.480;9.806;2023-07-20T00:22:20;15.00;99.90
19348;DHT22;9810;52.480;9.806;2023-07-20T00:24:47;15.00;99.90
19348;DHT22;9810;52.480;9.806;2023-07-20T00:27:15;14.90;99.90
19348;DHT22;9810;52.480;9.806;2023-07-20T00:29:44;14.90;99.90
19348;DHT22;9810;52.480;9.806;2023-07-20T00:32:11;14.80;99.90
19348;DHT22;9810;52.480;9.806;2023-07-20T00:34:37;14.80;99.90
19348;DHT22;9810;52.480;9.806;2023-07-20T00:37:04;14.80;99.90
19348;DHT22;9810;52.480;9.806;2023-07-20T00:39:32;14.80;99.90
19348;DHT22;9810;52.480;9.806;2023-07-20T00:41:59;14.70;99.90
19348;DHT22;9810;52.480;9.806;2023-07-20T00:44:26;14.70;99.90
19348;DHT22;9810;52.480;9.806;2023-07-20T00:46:55;14.60;99.90
19348;DHT22;9810;52.480;9.806;2023-07-20T00:49:22;14.50;99.90
19348;DHT22;9810;52.480;9.806;2023-07-20T00:51:50;14.60;99.90
19348;DHT22;9810;52.480;9.806;2023-07-20T00:54:18;14.50;99.90
19348;DHT22;9810;52.480;9.806;2023-07-20T00:56:46;14.50;99.90
19348;DHT22;9810;52.480;9.806;2023-07-20T00:59:14;14.50;99.90
19348;DHT22;9810;52.480;9.806;2023-07-20T01:01:41;14.30;99.90
19348;DHT22;9810;52.480;9.806;2023-07-20T01:04:10;14.30;99.90
19348;DHT22;9810;52.480;9.806;2023-07-20T01:06:45;14.30;99.90
19348;DHT22;9810;52.480;9.806;2023-07-20T01:09:19;14.30;99.90
19348;DHT22;9810;52.480;9.806;2023-07-20T01:11:54;14.30;99.90
19348;DHT22;9810;52.480;9.806;2023-07-20T01:14:25;14.20;99.90
19348;DHT22;9810;52.480;9.806;2023-07-20T01:16:52;14.30;99.90
19348;DHT22;9810;52.480;9.806;2023-07-20T01:19:21;14.10;99.90
19348;DHT22;9810;52.480;9.806;2023-07-20T01:21:53;14.10;99.90
19348;DHT22;9810;52.480;9.806;2023-07-20T01:30:55;14.00;99.90
19348;DHT22;9810;52.480;9.806;2023-07-20T01:33:25;13.90;99.90
19348;DHT22;9810;52.480;9.806;2023-07-20T01:35:56;13.80;99.90
19348;DHT22;9810;52.480;9.806;2023-07-20T01:38:24;13.70;99.90
19348;DHT22;9810;52.480;9.806;2023-07-20T01:40:52;13.60;99.90
19348;DHT22;9810;52.480;9.806;2023-07-20T01:43:19;13.50;99.90
19348;DHT22;9810;52.480;9.806;2023-07-20T01:45:47;13.50;99.90
19348;DHT22;9810;52.480;9.806;2023-07-20T01:48:14;13.50;99.90
19348;DHT22;9810;52.480;9.806;2023-07-20T01:50:43;13.20;99.90
19348;DHT22;9810;52.480;9.806;2023-07-20T01:53:11;13.10;99.90
19348;DHT22;9810;52.480;9.806;2023-07-20T01:55:38;13.10;99.90
19348;DHT22;9810;52.480;9.806;2023-07-20T01:58:05;13.10;99.90
19348;DHT22;9810;52.480;9.806;2023-07-20T02:00:33;13.20;99.90
19348;DHT22;9810;52.480;9.806;2023-07-20T02:03:00;13.20;99.90
19348;DHT22;9810;52.480;9.806;2023-07-20T02:05:27;13.20;99.90
19348;DHT22;9810;52.480;9.806;2023-07-20T02:07:55;13.10;99.90
19348;DHT22;9810;52.480;9.806;2023-07-20T02:10:23;12.90;99.90
19348;DHT22;9810;52.480;9.806;2023-07-20T02:12:50;13.00;99.90
19348;DHT22;9810;52.480;9.806;2023-07-20T02:15:18;12.80;99.90
19348;DHT22;9810;52.480;9.806;2023-07-20T02:17:45;12.80;99.90
19348;DHT22;9810;52.480;9.806;2023-07-20T02:20:12;12.70;99.90
19348;DHT22;9810;52.480;9.806;2023-07-20T02:22:40;12.60;99.90
19348;DHT22;9810;52.480;9.806;2023-07-20T02:25:09;12.70;99.90
19348;DHT22;9810;52.480;9.806;2023-07-20T02:27:38;12.70;99.90
19348;DHT22;9810;52.480;9.806;2023-07-20T02:30:09;12.70;99.90
19348;DHT22;9810;52.480;9.806;2023-07-20T02:32:36;12.70;99.90
19348;DHT22;9810;52.480;9.806;2023-07-20T02:35:05;12.80;99.90
19348;DHT22;9810;52.480;9.806;2023-07-20T02:37:32;12.80;99.90
19348;DHT22;9810;52.480;9.806;2023-07-20T02:40:00;12.80;99.90
19348;DHT22;9810;52.480;9.806;2023-07-20T02:42:30;12.80;99.90
19348;DHT22;9810;52.480;9.806;2023-07-20T02:44:58;12.60;99.90
19348;DHT22;9810;52.480;9.806;2023-07-20T02:47:25;12.50;99.90
19348;DHT22;9810;52.480;9.806;2023-07-20T02:49:52;12.40;99.90
19348;DHT22;9810;52.480;9.806;2023-07-20T02:52:19;12.30;99.90
19348;DHT22;9810;52.480;9.806;2023-07-20T02:54:46;12.30;99.90
19348;DHT22;9810;52.480;9.806;2023-07-20T02:57:13;12.20;99.90
19348;DHT22;9810;52.480;9.806;2023-07-20T02:59:42;12.30;99.90
19348;DHT22;9810;52.480;9.806;2023-07-20T03:02:09;12.30;99.90
19348;DHT22;9810;52.480;9.806;2023-07-20T03:04:37;12.30;99.90
19348;DHT22;9810;52.480;9.806;2023-07-20T03:07:04;12.30;99.90
19348;DHT22;9810;52.480;9.806;2023-07-20T03:09:32;12.30;99.90
19348;DHT22;9810;52.480;9.806;2023-07-20T03:11:59;12.30;99.90
19348;DHT22;9810;52.480;9.806;2023-07-20T03:14:27;12.40;99.90
19348;DHT22;9810;52.480;9.806;2023-07-20T03:16:56;12.30;99.90
19348;DHT22;9810;52.480;9.806;2023-07-20T03:19:24;12.40;99.90
19348;DHT22;9810;52.480;9.806;2023-07-20T03:21:51;12.50;99.90
19348;DHT22;9810;52.480;9.806;2023-07-20T03:24:18;12.70;99.90
19348;DHT22;9810;52.480;9.806;2023-07-20T03:26:46;12.80;99.90
19348;DHT22;9810;52.480;9.806;2023-07-20T03:29:13;12.70;99.90
19348;DHT22;9810;52.480;9.806;2023-07-20T03:31:41;12.70;99.90
19348;DHT22;9810;52.480;9.806;2023-07-20T03:34:10;12.70;99.90
19348;DHT22;9810;52.480;9.806;2023-07-20T03:36:39;12.60;99.90
19348;DHT22;9810;52.480;9.806;2023-07-20T03:39:06;12.70;99.90
19348;DHT22;9810;52.480;9.806;2023-07-20T03:41:33;12.90;99.90
19348;DHT22;9810;52.480;9.806;2023-07-20T03:44:00;12.90;99.90
19348;DHT22;9810;52.480;9.806;2023-07-20T03:46:27;13.10;99.90
19348;DHT22;9810;52.480;9.806;2023-07-20T03:48:55;13.10;99.90
19348;DHT22;9810;52.480;9.806;2023-07-20T03:51:24;13.10;99.90
19348;DHT22;9810;52.480;9.806;2023-07-20T03:53:51;13.20;99.90
19348;DHT22;9810;52.480;9.806;2023-07-20T03:56:18;13.30;99.90
19348;DHT22;9810;52.480;9.806;2023-07-20T03:58:45;13.40;99.90
19348;DHT22;9810;52.480;9.806;2023-07-20T04:01:13;13.40;99.90
19348;DHT22;9810;52.480;9.806;2023-07-20T04:03:42;13.40;99.90
19348;DHT22;9810;52.480;9.806;2023-07-20T04:06:09;13.40;99.90
19348;DHT22;9810;52.480;9.806;2023-07-20T04:08:38;13.50;99.90
19348;DHT22;9810;52.480;9.806;2023-07-20T04:11:05;13.60;99.90
19348;DHT22;9810;52.480;9.806;2023-07-20T04:13:32;13.70;99.90
19348;DHT22;9810;52.480;9.806;2023-07-20T04:16:00;13.80;99.90
19348;DHT22;9810;52.480;9.806;2023-07-20T04:18:28;13.90;99.90
19348;DHT22;9810;52.480;9.806;2023-07-20T04:20:55;13.90;99.90
19348;DHT22;9810;52.480;9.806;2023-07-20T04:23:23;14.10;99.90
19348;DHT22;9810;52.480;9.806;2023-07-20T04:25:52;14.10;99.90
19348;DHT22;9810;52.480;9.806;2023-07-20T04:28:20;14.20;99.90
19348;DHT22;9810;52.480;9.806;2023-07-20T04:30:49;14.20;99.90
19348;DHT22;9810;52.480;9.806;2023-07-20T04:33:17;14.20;99.90
19348;DHT22;9810;52.480;9.806;2023-07-20T04:35:49;14.30;99.90
19348;DHT22;9810;52.480;9.806;2023-07-20T04:38:17;14.30;99.90
19348;DHT22;9810;52.480;9.806;2023-07-20T04:40:45;14.20;99.90
19348;DHT22;9810;52.480;9.806;2023-07-20T04:43:14;14.30;99.90
19348;DHT22;9810;52.480;9.806;2023-07-20T04:45:42;14.30;99.90
19348;DHT22;9810;52.480;9.806;2023-07-20T04:48:12;14.30;99.90
19348;DHT22;9810;52.480;9.806;2023-07-20T04:50:41;14.30;99.90
19348;DHT22;9810;52.480;9.806;2023-07-20T04:53:09;14.40;99.90
19348;DHT22;9810;52.480;9.806;2023-07-20T04:55:36;14.40;99.90
19348;DHT22;9810;52.480;9.806;2023-07-20T04:58:05;14.40;99.90
19348;DHT22;9810;52.480;9.806;2023-07-20T05:00:34;14.40;99.90
19348;DHT22;9810;52.480;9.806;2023-07-20T05:03:01;14.50;99.90
19348;DHT22;9810;52.480;9.806;2023-07-20T05:05:30;14.60;99.90
19348;DHT22;9810;52.480;9.806;2023-07-20T05:07:58;14.60;99.90
19348;DHT22;9810;52.480;9.806;2023-07-20T05:10:25;14.50;99.90
19348;DHT22;9810;52.480;9.806;2023-07-20T05:12:53;14.60;99.90
19348;DHT22;9810;52.480;9.806;2023-07-20T05:15:20;14.50;99.90
19348;DHT22;9810;52.480;9.806;2023-07-20T05:17:49;14.50;99.90
19348;DHT22;9810;52.480;9.806;2023-07-20T05:20:16;14.60;99.90
19348;DHT22;9810;52.480;9.806;2023-07-20T05:22:44;14.60;99.90
19348;DHT22;9810;52.480;9.806;2023-07-20T05:25:11;14.60;99.90
19348;DHT22;9810;52.480;9.806;2023-07-20T05:27:39;14.70;99.90
19348;DHT22;9810;52.480;9.806;2023-07-20T05:30:07;14.70;99.90
19348;DHT22;9810;52.480;9.806;2023-07-20T05:32:34;14.70;99.90
19348;DHT22;9810;52.480;9.806;2023-07-20T05:35:02;14.70;99.90
19348;DHT22;9810;52.480;9.806;2023-07-20T05:37:30;14.70;99.90
19348;DHT22;9810;52.480;9.806;2023-07-20T05:39:57;14.80;99.90
19348;DHT22;9810;52.480;9.806;2023-07-20T05:42:24;14.80;99.90
19348;DHT22;9810;52.480;9.806;2023-07-20T05:44:52;14.70;99.90
19348;DHT22;9810;52.480;9.806;2023-07-20T05:47:20;14.80;99.90
19348;DHT22;9810;52.480;9.806;2023-07-20T05:49:48;14.80;99.90
19348;DHT22;9810;52.480;9.806;2023-07-20T05:52:17;14.80;99.90
19348;DHT22;9810;52.480;9.806;2023-07-20T05:54:44;14.90;99.90
19348;DHT22;9810;52.480;9.806;2023-07-20T05:57:11;14.90;99.90
19348;DHT22;9810;52.480;9.806;2023-07-20T05:59:39;15.10;99.90
19348;DHT22;9810;52.480;9.806;2023-07-20T06:02:09;15.10;99.90
19348;DHT22;9810;52.480;9.806;2023-07-20T06:04:38;15.10;99.90
19348;DHT22;9810;52.480;9.806;2023-07-20T06:07:06;15.40;99.90
19348;DHT22;9810;52.480;9.806;2023-07-20T06:09:35;15.40;99.90
19348;DHT22;9810;52.480;9.806;2023-07-20T06:12:02;15.40;99.90
19348;DHT22;9810;52.480;9.806;2023-07-20T06:14:29;15.70;99.90
19348;DHT22;9810;52.480;9.806;2023-07-20T06:16:57;15.90;99.90
19348;DHT22;9810;52.480;9.806;2023-07-20T06:19:24;15.60;99.90
19348;DHT22;9810;52.480;9.806;2023-07-20T06:21:52;15.60;99.90
19348;DHT22;9810;52.480;9.806;2023-07-20T06:24:19;15.60;99.90
19348;DHT22;9810;52.480;9.806;2023-07-20T06:26:48;15.70;99.90
19348;DHT22;9810;52.480;9.806;2023-07-20T06:29:15;15.60;99.90
19348;DHT22;9810;52.480;9.806;2023-07-20T06:31:43;15.50;99.90
19348;DHT22;9810;52.480;9.806;2023-07-20T06:34:10;15.50;99.90
19348;DHT22;9810;52.480;9.806;2023-07-20T06:36:38;15.70;99.90
19348;DHT22;9810;52.480;9.806;2023-07-20T06:39:05;15.80;99.90
19348;DHT22;9810;52.480;9.806;2023-07-20T06:41:32;15.80;99.90
19348;DHT22;9810;52.480;9.806;2023-07-20T06:44:01;15.90;99.90
19348;DHT22;9810;52.480;9.806;2023-07-20T06:46:28;15.90;99.90
19348;DHT22;9810;52.480;9.806;2023-07-20T06:48:56;15.90;99.90
19348;DHT22;9810;52.480;9.806;2023-07-20T06:51:23;15.80;99.90
19348;DHT22;9810;52.480;9.806;2023-07-20T06:53:50;16.10;99.90
19348;DHT22;9810;52.480;9.806;2023-07-20T06:56:18;16.30;99.90
19348;DHT22;9810;52.480;9.806;2023-07-20T06:58:45;16.50;99.90
19348;DHT22;9810;52.480;9.806;2023-07-20T07:01:14;16.60;99.90
19348;DHT22;9810;52.480;9.806;2023-07-20T07:03:41;16.60;99.90
19348;DHT22;9810;52.480;9.806;2023-07-20T07:06:09;16.80;99.90
19348;DHT22;9810;52.480;9.806;2023-07-20T07:08:37;16.70;99.90
19348;DHT22;9810;52.480;9.806;2023-07-20T07:11:04;16.70;99.90
19348;DHT22;9810;52.480;9.806;2023-07-20T07:13:32;16.80;99.90
19348;DHT22;9810;52.480;9.806;2023-07-20T07:15:59;16.90;99.90
19348;DHT22;9810;52.480;9.806;2023-07-20T07:18:28;17.10;99.90
19348;DHT22;9810;52.480;9.806;2023-07-20T07:20:55;17.30;99.90
19348;DHT22;9810;52.480;9.806;2023-07-20T07:23:22;17.20;99.90
19348;DHT22;9810;52.480;9.806;2023-07-20T07:25:49;17.10;99.90
19348;DHT22;9810;52.480;9.806;2023-07-20T07:28:16;17.50;99.90
19348;DHT22;9810;52.480;9.806;2023-07-20T07:30:44;17.60;99.90
19348;DHT22;9810;52.480;9.806;2023-07-20T07:33:11;18.10;99.90
19348;DHT22;9810;52.480;9.806;2023-07-20T07:35:40;17.50;99.90
19348;DHT22;9810;52.480;9.806;2023-07-20T07:38:07;17.80;99.90
19348;DHT22;9810;52.480;9.806;2023-07-20T07:40:34;18.80;99.90
19348;DHT22;9810;52.480;9.806;2023-07-20T07:43:02;19.40;99.90
19348;DHT22;9810;52.480;9.806;2023-07-20T07:45:29;20.30;99.90
19348;DHT22;9810;52.480;9.806;2023-07-20T07:47:56;19.60;99.90
19348;DHT22;9810;52.480;9.806;2023-07-20T07:50:23;18.60;99.90
19348;DHT22;9810;52.480;9.806;2023-07-20T07:52:54;18.20;99.90
19348;DHT22;9810;52.480;9.806;2023-07-20T07:55:21;18.90;99.90
19348;DHT22;9810;52.480;9.806;2023-07-20T07:57:48;19.40;99.90
19348;DHT22;9810;52.480;9.806;2023-07-20T08:00:16;20.00;99.90
19348;DHT22;9810;52.480;9.806;2023-07-20T08:02:45;20.70;99.90
19348;DHT22;9810;52.480;9.806;2023-07-20T08:05:13;21.40;99.90
19348;DHT22;9810;52.480;9.806;2023-07-20T08:07:41;21.10;99.90
19348;DHT22;9810;52.480;9.806;2023-07-20T08:10:10;20.30;99.90
19348;DHT22;9810;52.480;9.806;2023-07-20T08:12:38;20.30;99.90
19348;DHT22;9810;52.480;9.806;2023-07-20T08:15:06;20.90;99.90
19348;DHT22;9810;52.480;9.806;2023-07-20T08:17:33;21.30;99.90
19348;DHT22;9810;52.480;9.806;2023-07-20T08:20:00;21.40;99.90
19348;DHT22;9810;52.480;9.806;2023-07-20T08:22:28;21.30;99.90
19348;DHT22;9810;52.480;9.806;2023-07-20T08:24:55;21.50;99.90
19348;DHT22;9810;52.480;9.806;2023-07-20T08:27:25;22.10;99.90
19348;DHT22;9810;52.480;9.806;2023-07-20T08:29:52;22.60;99.90
19348;DHT22;9810;52.480;9.806;2023-07-20T08:32:19;22.80;99.90
19348;DHT22;9810;52.480;9.806;2023-07-20T08:34:46;22.50;99.90
19348;DHT22;9810;52.480;9.806;2023-07-20T08:37:13;22.40;99.90
19348;DHT22;9810;52.480;9.806;2023-07-20T08:39:41;22.50;99.90
19348;DHT22;9810;52.480;9.806;2023-07-20T08:42:09;23.20;99.90
19348;DHT22;9810;52.480;9.806;2023-07-20T08:44:39;22.80;99.90
19348;DHT22;9810;52.480;9.806;2023-07-20T08:47:09;21.60;99.90
19348;DHT22;9810;52.480;9.806;2023-07-20T08:49:37;21.30;99.90
19348;DHT22;9810;52.480;9.806;2023-07-20T08:52:06;21.70;99.90
19348;DHT22;9810;52.480;9.806;2023-07-20T08:54:34;22.20;99.90
19348;DHT22;9810;52.480;9.806;2023-07-20T08:57:03;22.80;99.90
19348;DHT22;9810;52.480;9.806;2023-07-20T08:59:31;23.80;99.90
19348;DHT22;9810;52.480;9.806;2023-07-20T09:02:01;24.30;99.90
19348;DHT22;9810;52.480;9.806;2023-07-20T09:04:29;23.30;99.90
19348;DHT22;9810;52.480;9.806;2023-07-20T09:06:57;22.20;99.90
19348;DHT22;9810;52.480;9.806;2023-07-20T09:09:24;23.10;99.90
19348;DHT22;9810;52.480;9.806;2023-07-20T09:11:52;24.20;99.90
19348;DHT22;9810;52.480;9.806;2023-07-20T09:14:19;24.50;99.90
19348;DHT22;9810;52.480;9.806;2023-07-20T09:16:50;24.10;99.90
19348;DHT22;9810;52.480;9.806;2023-07-20T09:19:19;24.10;99.90
19348;DHT22;9810;52.480;9.806;2023-07-20T09:21:47;24.30;99.90
19348;DHT22;9810;52.480;9.806;2023-07-20T09:24:17;25.10;99.90
19348;DHT22;9810;52.480;9.806;2023-07-20T09:26:45;24.50;99.90
19348;DHT22;9810;52.480;9.806;2023-07-20T09:29:14;24.90;99.90
19348;DHT22;9810;52.480;9.806;2023-07-20T09:31:41;24.40;99.90
19348;DHT22;9810;52.480;9.806;2023-07-20T09:34:09;24.80;99.90
19348;DHT22;9810;52.480;9.806;2023-07-20T09:36:38;24.50;99.90
19348;DHT22;9810;52.480;9.806;2023-07-20T09:39:05;24.60;99.90
19348;DHT22;9810;52.480;9.806;2023-07-20T09:41:40;24.40;99.90
19348;DHT22;9810;52.480;9.806;2023-07-20T09:44:10;25.40;99.90
19348;DHT22;9810;52.480;9.806;2023-07-20T09:46:45;25.10;99.90
19348;DHT22;9810;52.480;9.806;2023-07-20T09:49:13;25.60;99.90
19348;DHT22;9810;52.480;9.806;2023-07-20T09:51:42;25.40;99.90
19348;DHT22;9810;52.480;9.806;2023-07-20T09:54:10;25.40;99.90
19348;DHT22;9810;52.480;9.806;2023-07-20T09:56:38;24.40;99.90
19348;DHT22;9810;52.480;9.806;2023-07-20T09:59:06;23.90;99.90
19348;DHT22;9810;52.480;9.806;2023-07-20T10:01:34;24.20;99.90
19348;DHT22;9810;52.480;9.806;2023-07-20T10:04:04;24.60;99.90
19348;DHT22;9810;52.480;9.806;2023-07-20T10:06:34;25.10;99.90
19348;DHT22;9810;52.480;9.806;2023-07-20T10:09:04;25.60;99.90
19348;DHT22;9810;52.480;9.806;2023-07-20T10:11:36;25.50;99.90
19348;DHT22;9810;52.480;9.806;2023-07-20T10:14:06;25.70;99.90
19348;DHT22;9810;52.480;9.806;2023-07-20T10:16:35;24.70;99.90
19348;DHT22;9810;52.480;9.806;2023-07-20T10:19:05;24.60;99.90
19348;DHT22;9810;52.480;9.806;2023-07-20T10:21:36;24.30;99.90
19348;DHT22;9810;52.480;9.806;2023-07-20T10:24:07;24.20;99.90
19348;DHT22;9810;52.480;9.806;2023-07-20T10:26:34;23.60;99.90
19348;DHT22;9810;52.480;9.806;2023-07-20T10:29:02;23.50;99.90
19348;DHT22;9810;52.480;9.806;2023-07-20T10:31:30;24.50;99.90
19348;DHT22;9810;52.480;9.806;2023-07-20T10:33:58;24.70;99.90
19348;DHT22;9810;52.480;9.806;2023-07-20T10:36:26;24.60;99.90
19348;DHT22;9810;52.480;9.806;2023-07-20T10:38:55;24.20;99.90
19348;DHT22;9810;52.480;9.806;2023-07-20T10:41:28;24.30;99.90
19348;DHT22;9810;52.480;9.806;2023-07-20T10:43:59;23.80;99.90
19348;DHT22;9810;52.480;9.806;2023-07-20T10:46:43;23.20;99.90
19348;DHT22;9810;52.480;9.806;2023-07-20T10:49:12;23.60;99.90
19348;DHT22;9810;52.480;9.806;2023-07-20T10:51:41;24.30;99.90
19348;DHT22;9810;52.480;9.806;2023-07-20T10:54:33;24.50;99.90
19348;DHT22;9810;52.480;9.806;2023-07-20T10:57:23;23.50;99.90
19348;DHT22;9810;52.480;9.806;2023-07-20T10:59:51;22.90;99.90
19348;DHT22;9810;52.480;9.806;2023-07-20T11:02:19;22.70;99.90
19348;DHT22;9810;52.480;9.806;2023-07-20T11:04:47;22.50;99.90
19348;DHT22;9810;52.480;9.806;2023-07-20T11:07:16;22.90;99.90
19348;DHT22;9810;52.480;9.806;2023-07-20T11:09:43;23.80;99.90
19348;DHT22;9810;52.480;9.806;2023-07-20T11:12:14;24.40;99.90
19348;DHT22;9810;52.480;9.806;2023-07-20T11:14:42;24.30;99.90
19348;DHT22;9810;52.480;9.806;2023-07-20T11:17:14;23.20;99.90
19348;DHT22;9810;52.480;9.806;2023-07-20T11:19:42;23.40;99.90
19348;DHT22;9810;52.480;9.806;2023-07-20T11:22:09;23.80;99.90
19348;DHT22;9810;52.480;9.806;2023-07-20T11:24:39;23.60;99.90
19348;DHT22;9810;52.480;9.806;2023-07-20T11:27:06;23.60;99.90
19348;DHT22;9810;52.480;9.806;2023-07-20T11:29:37;23.80;99.90
19348;DHT22;9810;52.480;9.806;2023-07-20T11:32:05;24.00;99.90
19348;DHT22;9810;52.480;9.806;2023-07-20T11:34:33;23.20;99.90
19348;DHT22;9810;52.480;9.806;2023-07-20T11:37:01;22.40;99.90
19348;DHT22;9810;52.480;9.806;2023-07-20T11:39:29;22.40;99.90
19348;DHT22;9810;52.480;9.806;2023-07-20T11:41:57;22.40;99.90
19348;DHT22;9810;52.480;9.806;2023-07-20T11:44:26;22.00;99.90
19348;DHT22;9810;52.480;9.806;2023-07-20T11:47:03;22.10;99.90
19348;DHT22;9810;52.480;9.806;2023-07-20T11:49:34;22.50;99.90
19348;DHT22;9810;52.480;9.806;2023-07-20T11:52:02;22.30;99.90
19348;DHT22;9810;52.480;9.806;2023-07-20T11:54:30;22.30;99.90
19348;DHT22;9810;52.480;9.806;2023-07-20T11:57:00;22.00;99.90
19348;DHT22;9810;52.480;9.806;2023-07-20T11:59:28;22.40;99.90
19348;DHT22;9810;52.480;9.806;2023-07-20T12:01:56;23.50;99.90
19348;DHT22;9810;52.480;9.806;2023-07-20T12:04:25;23.70;99.90
19348;DHT22;9810;52.480;9.806;2023-07-20T12:06:53;23.70;99.90
19348;DHT22;9810;52.480;9.806;2023-07-20T12:09:21;24.00;99.90
19348;DHT22;9810;52.480;9.806;2023-07-20T12:11:49;24.20;99.90
19348;DHT22;9810;52.480;9.806;2023-07-20T12:14:17;24.00;99.90
19348;DHT22;9810;52.480;9.806;2023-07-20T12:16:44;24.10;99.90
19348;DHT22;9810;52.480;9.806;2023-07-20T12:19:19;23.90;99.90
19348;DHT22;9810;52.480;9.806;2023-07-20T12:21:47;23.70;99.90
19348;DHT22;9810;52.480;9.806;2023-07-20T12:24:15;24.20;99.90
19348;DHT22;9810;52.480;9.806;2023-07-20T12:26:44;24.30;99.90
19348;DHT22;9810;52.480;9.806;2023-07-20T12:29:11;24.30;99.90
19348;DHT22;9810;52.480;9.806;2023-07-20T12:31:38;24.40;99.90
19348;DHT22;9810;52.480;9.806;2023-07-20T12:34:05;24.50;99.90
19348;DHT22;9810;52.480;9.806;2023-07-20T12:36:33;24.30;99.90
19348;DHT22;9810;52.480;9.806;2023-07-20T12:39:03;24.00;99.90
19348;DHT22;9810;52.480;9.806;2023-07-20T12:41:30;23.20;99.90
19348;DHT22;9810;52.480;9.806;2023-07-20T12:43:57;22.40;99.90
19348;DHT22;9810;52.480;9.806;2023-07-20T12:46:25;22.20;99.90
19348;DHT22;9810;52.480;9.806;2023-07-20T12:48:55;22.90;99.90
19348;DHT22;9810;52.480;9.806;2023-07-20T12:51:22;23.20;99.90
19348;DHT22;9810;52.480;9.806;2023-07-20T12:53:49;23.50;99.90
19348;DHT22;9810;52.480;9.806;2023-07-20T12:56:18;23.80;99.90
19348;DHT22;9810;52.480;9.806;2023-07-20T12:58:45;23.80;99.90
19348;DHT22;9810;52.480;9.806;2023-07-20T13:01:15;23.60;99.90
19348;DHT22;9810;52.480;9.806;2023-07-20T13:03:42;23.80;99.90
19348;DHT22;9810;52.480;9.806;2023-07-20T13:06:09;23.90;99.90
19348;DHT22;9810;52.480;9.806;2023-07-20T13:08:37;23.90;99.90
19348;DHT22;9810;52.480;9.806;2023-07-20T13:11:04;23.90;99.90
19348;DHT22;9810;52.480;9.806;2023-07-20T13:13:33;23.90;99.90
19348;DHT22;9810;52.480;9.806;2023-07-20T13:16:00;23.20;99.90
19348;DHT22;9810;52.480;9.806;2023-07-20T13:18:28;22.70;99.90
19348;DHT22;9810;52.480;9.806;2023-07-20T13:20:55;22.60;99.90
19348;DHT22;9810;52.480;9.806;2023-07-20T13:23:22;22.90;99.90
19348;DHT22;9810;52.480;9.806;2023-07-20T13:25:49;22.60;99.90
19348;DHT22;9810;52.480;9.806;2023-07-20T13:28:17;23.30;99.90
19348;DHT22;9810;52.480;9.806;2023-07-20T13:30:45;22.80;99.90
19348;DHT22;9810;52.480;9.806;2023-07-20T13:33:13;22.80;99.90
19348;DHT22;9810;52.480;9.806;2023-07-20T13:35:40;22.90;99.90
19348;DHT22;9810;52.480;9.806;2023-07-20T13:38:07;23.20;99.90
19348;DHT22;9810;52.480;9.806;2023-07-20T13:40:35;23.50;99.90
19348;DHT22;9810;52.480;9.806;2023-07-20T13:43:02;23.30;99.90
19348;DHT22;9810;52.480;9.806;2023-07-20T13:45:29;23.50;99.90
19348;DHT22;9810;52.480;9.806;2023-07-20T13:47:58;22.60;99.90
19348;DHT22;9810;52.480;9.806;2023-07-20T13:50:25;22.80;99.90
19348;DHT22;9810;52.480;9.806;2023-07-20T13:52:54;23.40;99.90
19348;DHT22;9810;52.480;9.806;2023-07-20T13:55:21;23.80;99.90
19348;DHT22;9810;52.480;9.806;2023-07-20T13:57:48;23.80;99.90
19348;DHT22;9810;52.480;9.806;2023-07-20T14:00:16;23.60;99.90
19348;DHT22;9810;52.480;9.806;2023-07-20T14:02:43;23.90;99.90
19348;DHT22;9810;52.480;9.806;2023-07-20T14:05:12;24.00;99.90
19348;DHT22;9810;52.480;9.806;2023-07-20T14:07:41;24.40;99.90
19348;DHT22;9810;52.480;9.806;2023-07-20T14:10:09;24.20;99.90
19348;DHT22;9810;52.480;9.806;2023-07-20T14:12:37;24.10;99.90
19348;DHT22;9810;52.480;9.806;2023-07-20T14:15:05;24.10;99.90
19348;DHT22;9810;52.480;9.806;2023-07-20T14:17:32;24.30;99.90
19348;DHT22;9810;52.480;9.806;2023-07-20T14:20:00;24.50;99.90
19348;DHT22;9810;52.480;9.806;2023-07-20T14:22:29;23.80;99.90
19348;DHT22;9810;52.480;9.806;2023-07-20T14:24:56;23.40;99.90
19348;DHT22;9810;52.480;9.806;2023-07-20T14:27:24;23.20;99.90
19348;DHT22;9810;52.480;9.806;2023-07-20T14:29:51;23.00;99.90
19348;DHT22;9810;52.480;9.806;2023-07-20T14:32:18;22.70;99.90
19348;DHT22;9810;52.480;9.806;2023-07-20T14:34:46;22.50;99.90
19348;DHT22;9810;52.480;9.806;2023-07-20T14:37:13;22.80;99.90
19348;DHT22;9810;52.480;9.806;2023-07-20T14:39:41;23.60;99.90
19348;DHT22;9810;52.480;9.806;2023-07-20T14:42:09;23.70;99.90
19348;DHT22;9810;52.480;9.806;2023-07-20T14:44:36;24.20;99.90
19348;DHT22;9810;52.480;9.806;2023-07-20T14:47:03;23.80;99.90
19348;DHT22;9810;52.480;9.806;2023-07-20T14:49:31;23.20;99.90
19348;DHT22;9810;52.480;9.806;2023-07-20T14:51:58;23.10;99.90
19348;DHT22;9810;52.480;9.806;2023-07-20T14:54:25;22.50;99.90
19348;DHT22;9810;52.480;9.806;2023-07-20T14:56:54;22.10;99.90
19348;DHT22;9810;52.480;9.806;2023-07-20T14:59:22;21.80;99.90
19348;DHT22;9810;52.480;9.806;2023-07-20T15:01:49;22.30;99.90
19348;DHT22;9810;52.480;9.806;2023-07-20T15:04:16;22.90;99.90
19348;DHT22;9810;52.480;9.806;2023-07-20T15:06:44;22.70;99.90
19348;DHT22;9810;52.480;9.806;2023-07-20T15:09:11;21.90;99.90
19348;DHT22;9810;52.480;9.806;2023-07-20T15:11:38;21.70;99.90
19348;DHT22;9810;52.480;9.806;2023-07-20T15:14:07;21.60;99.90
19348;DHT22;9810;52.480;9.806;2023-07-20T15:16:34;21.60;99.90
19348;DHT22;9810;52.480;9.806;2023-07-20T15:19:02;21.60;99.90
19348;DHT22;9810;52.480;9.806;2023-07-20T15:21:30;21.60;99.90
19348;DHT22;9810;52.480;9.806;2023-07-20T15:23:58;21.80;99.90
19348;DHT22;9810;52.480;9.806;2023-07-20T15:26:25;21.90;99.90
19348;DHT22;9810;52.480;9.806;2023-07-20T15:28:52;22.00;99.90
19348;DHT22;9810;52.480;9.806;2023-07-20T15:31:21;21.90;99.90
19348;DHT22;9810;52.480;9.806;2023-07-20T15:33:49;21.70;99.90
19348;DHT22;9810;52.480;9.806;2023-07-20T15:36:17;21.80;99.90
19348;DHT22;9810;52.480;9.806;2023-07-20T15:38:45;21.60;99.90
19348;DHT22;9810;52.480;9.806;2023-07-20T15:41:12;21.50;99.90
19348;DHT22;9810;52.480;9.806;2023-07-20T15:43:40;21.50;99.90
19348;DHT22;9810;52.480;9.806;2023-07-20T15:46:43;21.40;99.90
19348;DHT22;9810;52.480;9.806;2023-07-20T15:49:10;21.30;99.90
19348;DHT22;9810;52.480;9.806;2023-07-20T15:51:37;21.10;99.90
19348;DHT22;9810;52.480;9.806;2023-07-20T15:54:10;21.10;99.90
19348;DHT22;9810;52.480;9.806;2023-07-20T15:56:38;21.10;99.90